Terminal Aerodrome Forecast
Issued by NWS North Platte, NE

Home | Current Version | Previous Version | Text Only | Print | Product List | Glossary Off
Versions: 1 2 3 4 5 6 7 8 9 10 11 12 13 14 15 16 17

000
FTUS43 KLBF 281124
TAFVTN
TAF
KVTN 281124Z 2812/2912 VRB05KT P6SM SCT150
     FM281500 09007KT P6SM SCT150
     FM281800 08009KT P6SM SCT050 BKN100 BKN250
      TEMPO 2820/2824 VRB40KT 3SM +TSRA SQ OVC030CB
     FM290300 05005KT P6SM BKN050 BKN100=

USA.gov is the U.S. government's official web portal to all federal, state and local government web resources and services.